sensor_id;sensor_type;location;lat;lon;timestamp;pressure;altitude;pressure_sealevel;temperature;humidity
63194;BME280;49289;51.670;5.624;2023-01-28T00:01:00;103072.27;;;10.79;48.41
63194;BME280;49289;51.670;5.624;2023-01-28T00:02:46;103074.27;;;11.02;48.27
63194;BME280;49289;51.670;5.624;2023-01-28T00:04:34;103055.16;;;11.03;47.99
63194;BME280;49289;51.670;5.624;2023-01-28T00:06:23;103081.02;;;11.18;48.09
63194;BME280;49289;51.670;5.624;2023-01-28T00:08:10;103059.50;;;11.08;48.24
63194;BME280;49289;51.670;5.624;2023-01-28T00:09:57;103079.47;;;10.86;48.67
63194;BME280;49289;51.670;5.624;2023-01-28T00:11:45;103079.93;;;10.79;48.49
63194;BME280;49289;51.670;5.624;2023-01-28T00:13:33;103080.69;;;10.99;48.83
63194;BME280;49289;51.670;5.624;2023-01-28T00:15:22;103084.34;;;11.04;48.24
63194;BME280;49289;51.670;5.624;2023-01-28T00:17:09;103087.27;;;10.84;47.95
63194;BME280;49289;51.670;5.624;2023-01-28T00:18:56;103073.05;;;10.72;48.44
63194;BME280;49289;51.670;5.624;2023-01-28T00:20:43;103072.77;;;10.93;48.30
63194;BME280;49289;51.670;5.624;2023-01-28T00:22:32;103092.80;;;10.76;48.21
63194;BME280;49289;51.670;5.624;2023-01-28T00:24:20;103076.91;;;10.46;49.00
63194;BME280;49289;51.670;5.624;2023-01-28T00:26:10;103088.08;;;10.92;48.31
63194;BME280;49289;51.670;5.624;2023-01-28T00:27:58;103070.41;;;10.56;48.36
63194;BME280;49289;51.670;5.624;2023-01-28T00:29:45;103089.67;;;10.49;48.48
63194;BME280;49289;51.670;5.624;2023-01-28T00:31:32;103075.25;;;10.78;48.39
63194;BME280;49289;51.670;5.624;2023-01-28T00:33:19;103090.14;;;11.02;48.47
63194;BME280;49289;51.670;5.624;2023-01-28T00:35:06;103087.89;;;11.00;48.39
63194;BME280;49289;51.670;5.624;2023-01-28T00:36:55;103075.73;;;10.90;48.43
63194;BME280;49289;51.670;5.624;2023-01-28T00:38:47;103096.50;;;11.07;48.21
63194;BME280;49289;51.670;5.624;2023-01-28T00:40:30;103092.07;;;11.11;48.37
63194;BME280;49289;51.670;5.624;2023-01-28T00:42:17;103094.80;;;10.81;49.02
63194;BME280;49289;51.670;5.624;2023-01-28T00:44:07;103093.44;;;10.93;48.67
63194;BME280;49289;51.670;5.624;2023-01-28T00:45:54;103101.00;;;11.03;48.80
63194;BME280;49289;51.670;5.624;2023-01-28T00:47:41;103079.69;;;10.85;48.39
63194;BME280;49289;51.670;5.624;2023-01-28T00:49:28;103081.22;;;10.39;48.77
63194;BME280;49289;51.670;5.624;2023-01-28T00:51:17;103100.91;;;10.76;48.41
63194;BME280;49289;51.670;5.624;2023-01-28T00:53:04;103105.25;;;10.91;48.22
63194;BME280;49289;51.670;5.624;2023-01-28T00:54:51;103083.87;;;10.92;48.01
63194;BME280;49289;51.670;5.624;2023-01-28T00:56:38;103087.72;;;10.96;47.85
63194;BME280;49289;51.670;5.624;2023-01-28T00:58:26;103083.94;;;10.93;47.65
63194;BME280;49289;51.670;5.624;2023-01-28T01:00:16;103106.05;;;11.08;47.96
63194;BME280;49289;51.670;5.624;2023-01-28T01:02:04;103090.63;;;11.04;47.46
63194;BME280;49289;51.670;5.624;2023-01-28T01:03:51;103088.57;;;11.10;47.53
63194;BME280;49289;51.670;5.624;2023-01-28T01:05:38;103088.33;;;11.02;47.87
63194;BME280;49289;51.670;5.624;2023-01-28T01:07:28;103100.44;;;11.00;47.46
63194;BME280;49289;51.670;5.624;2023-01-28T01:09:15;103112.31;;;10.98;47.80
63194;BME280;49289;51.670;5.624;2023-01-28T01:11:04;103101.61;;;10.99;47.89
63194;BME280;49289;51.670;5.624;2023-01-28T01:12:51;103098.97;;;11.11;47.76
63194;BME280;49289;51.670;5.624;2023-01-28T01:14:40;103075.34;;;11.04;48.09
63194;BME280;49289;51.670;5.624;2023-01-28T01:16:27;103073.84;;;11.03;47.92
63194;BME280;49289;51.670;5.624;2023-01-28T01:18:14;103098.63;;;11.09;48.51
63194;BME280;49289;51.670;5.624;2023-01-28T01:20:01;103080.38;;;11.02;48.53
63194;BME280;49289;51.670;5.624;2023-01-28T01:21:49;103100.50;;;11.17;48.03
63194;BME280;49289;51.670;5.624;2023-01-28T01:23:38;103094.48;;;11.20;47.90
63194;BME280;49289;51.670;5.624;2023-01-28T01:25:26;103088.52;;;11.15;48.12
63194;BME280;49289;51.670;5.624;2023-01-28T01:27:13;103080.32;;;10.76;48.04
63194;BME280;49289;51.670;5.624;2023-01-28T01:29:00;103071.44;;;10.84;48.04
63194;BME280;49289;51.670;5.624;2023-01-28T01:30:47;103077.52;;;10.92;48.28
63194;BME280;49289;51.670;5.624;2023-01-28T01:32:36;103088.43;;;11.09;48.12
63194;BME280;49289;51.670;5.624;2023-01-28T01:34:24;103087.52;;;11.07;48.16
63194;BME280;49289;51.670;5.624;2023-01-28T01:36:13;103092.03;;;11.08;48.29
63194;BME280;49289;51.670;5.624;2023-01-28T01:38:01;103097.48;;;11.07;48.65
63194;BME280;49289;51.670;5.624;2023-01-28T01:39:49;103082.87;;;11.01;48.68
63194;BME280;49289;51.670;5.624;2023-01-28T01:41:37;103101.89;;;11.11;48.53
63194;BME280;49289;51.670;5.624;2023-01-28T01:43:43;103100.66;;;11.13;48.46
63194;BME280;49289;51.670;5.624;2023-01-28T01:45:17;103101.13;;;11.13;48.40
63194;BME280;49289;51.670;5.624;2023-01-28T01:47:05;103106.01;;;11.04;48.42
63194;BME280;49289;51.670;5.624;2023-01-28T01:48:53;103083.77;;;10.95;48.23
63194;BME280;49289;51.670;5.624;2023-01-28T01:50:42;103085.30;;;10.72;48.30
63194;BME280;49289;51.670;5.624;2023-01-28T01:52:29;103105.58;;;10.91;48.24
63194;BME280;49289;51.670;5.624;2023-01-28T01:54:17;103088.09;;;10.81;48.42
63194;BME280;49289;51.670;5.624;2023-01-28T01:56:05;103083.23;;;10.88;48.05
63194;BME280;49289;51.670;5.624;2023-01-28T01:57:54;103102.18;;;10.96;48.47
63194;BME280;49289;51.670;5.624;2023-01-28T01:59:42;103102.98;;;10.94;48.12
63194;BME280;49289;51.670;5.624;2023-01-28T02:01:30;103104.76;;;10.98;48.08
63194;BME280;49289;51.670;5.624;2023-01-28T02:03:18;103104.16;;;10.94;47.93
63194;BME280;49289;51.670;5.624;2023-01-28T02:05:06;103099.20;;;11.01;48.03
63194;BME280;49289;51.670;5.624;2023-01-28T02:06:53;103085.23;;;10.84;47.92
63194;BME280;49289;51.670;5.624;2023-01-28T02:08:41;103105.23;;;10.95;47.83
63194;BME280;49289;51.670;5.624;2023-01-28T02:10:29;103112.00;;;10.93;48.09
63194;BME280;49289;51.670;5.624;2023-01-28T02:12:19;103107.14;;;10.92;48.30
63194;BME280;49289;51.670;5.624;2023-01-28T02:14:06;103088.02;;;10.75;48.38
63194;BME280;49289;51.670;5.624;2023-01-28T02:15:53;103089.84;;;10.67;48.14
63194;BME280;49289;51.670;5.624;2023-01-28T02:17:41;103094.56;;;10.81;47.96
63194;BME280;49289;51.670;5.624;2023-01-28T02:19:30;103112.13;;;10.89;48.48
63194;BME280;49289;51.670;5.624;2023-01-28T02:21:29;103106.59;;;10.87;48.07
63194;BME280;49289;51.670;5.624;2023-01-28T02:23:33;103090.89;;;10.81;48.64
63194;BME280;49289;51.670;5.624;2023-01-28T02:25:38;103109.69;;;10.98;48.28
63194;BME280;49289;51.670;5.624;2023-01-28T02:29:30;103096.80;;;10.94;47.99
63194;BME280;49289;51.670;5.624;2023-01-28T02:31:17;103094.39;;;10.93;48.12
63194;BME280;49289;51.670;5.624;2023-01-28T02:33:04;103093.83;;;10.96;48.19
63194;BME280;49289;51.670;5.624;2023-01-28T02:34:54;103104.08;;;11.06;47.93
63194;BME280;49289;51.670;5.624;2023-01-28T02:36:40;103091.14;;;10.96;47.75
63194;BME280;49289;51.670;5.624;2023-01-28T02:38:30;103100.26;;;10.98;48.16
63194;BME280;49289;51.670;5.624;2023-01-28T02:40:17;103101.52;;;10.96;48.58
63194;BME280;49289;51.670;5.624;2023-01-28T02:42:05;103086.42;;;10.88;48.42
63194;BME280;49289;51.670;5.624;2023-01-28T02:43:51;103086.04;;;10.83;48.69
63194;BME280;49289;51.670;5.624;2023-01-28T02:45:41;103101.41;;;10.92;48.69
63194;BME280;49289;51.670;5.624;2023-01-28T02:47:29;103088.03;;;10.82;48.63
63194;BME280;49289;51.670;5.624;2023-01-28T02:49:20;103107.70;;;10.93;48.32
63194;BME280;49289;51.670;5.624;2023-01-28T02:51:07;103099.94;;;10.86;47.87
63194;BME280;49289;51.670;5.624;2023-01-28T02:52:59;103090.81;;;10.84;47.73
63194;BME280;49289;51.670;5.624;2023-01-28T02:54:47;103107.84;;;10.82;48.54
63194;BME280;49289;51.670;5.624;2023-01-28T02:56:36;103107.98;;;10.85;48.41
63194;BME280;49289;51.670;5.624;2023-01-28T02:58:24;103106.40;;;10.88;48.19
63194;BME280;49289;51.670;5.624;2023-01-28T03:00:13;103090.25;;;10.80;48.18
63194;BME280;49289;51.670;5.624;2023-01-28T03:02:01;103087.91;;;10.78;48.07
63194;BME280;49289;51.670;5.624;2023-01-28T03:03:49;103107.05;;;10.90;47.81
63194;BME280;49289;51.670;5.624;2023-01-28T03:05:37;103114.09;;;10.89;47.94
63194;BME280;49289;51.670;5.624;2023-01-28T03:07:26;103106.66;;;10.82;48.41
63194;BME280;49289;51.670;5.624;2023-01-28T03:09:13;103109.26;;;10.88;48.23
63194;BME280;49289;51.670;5.624;2023-01-28T03:11:01;103095.04;;;10.76;47.95
63194;BME280;49289;51.670;5.624;2023-01-28T03:12:50;103108.98;;;10.78;48.13
63194;BME280;49289;51.670;5.624;2023-01-28T03:14:36;103104.80;;;10.54;48.27
63194;BME280;49289;51.670;5.624;2023-01-28T03:16:23;103117.83;;;10.64;48.77
63194;BME280;49289;51.670;5.624;2023-01-28T03:18:12;103099.06;;;10.57;48.78
63194;BME280;49289;51.670;5.624;2023-01-28T03:19:59;103099.38;;;10.56;48.77
63194;BME280;49289;51.670;5.624;2023-01-28T03:21:47;103119.41;;;10.47;48.96
63194;BME280;49289;51.670;5.624;2023-01-28T03:23:36;103106.30;;;10.40;48.79
63194;BME280;49289;51.670;5.624;2023-01-28T03:25:23;103095.41;;;10.29;48.66
63194;BME280;49289;51.670;5.624;2023-01-28T03:27:13;103118.30;;;10.51;48.84
63194;BME280;49289;51.670;5.624;2023-01-28T03:29:00;103099.89;;;10.33;49.11
63194;BME280;49289;51.670;5.624;2023-01-28T03:30:47;103100.80;;;10.41;49.25
63194;BME280;49289;51.670;5.624;2023-01-28T03:32:33;103116.45;;;10.35;49.63
63194;BME280;49289;51.670;5.624;2023-01-28T03:34:20;103095.43;;;9.67;50.90
63194;BME280;49289;51.670;5.624;2023-01-28T03:36:09;103098.09;;;9.92;50.73
63194;BME280;49289;51.670;5.624;2023-01-28T03:37:57;103115.03;;;10.16;50.40
63194;BME280;49289;51.670;5.624;2023-01-28T03:39:44;103098.78;;;10.02;50.53
63194;BME280;49289;51.670;5.624;2023-01-28T03:41:31;103094.98;;;10.02;50.33
63194;BME280;49289;51.670;5.624;2023-01-28T03:43:19;103095.97;;;10.19;50.12
63194;BME280;49289;51.670;5.624;2023-01-28T03:45:08;103093.22;;;10.20;50.23
63194;BME280;49289;51.670;5.624;2023-01-28T03:46:55;103110.16;;;10.41;49.99
63194;BME280;49289;51.670;5.624;2023-01-28T03:48:42;103111.47;;;10.45;50.08
63194;BME280;49289;51.670;5.624;2023-01-28T03:51:18;103113.21;;;10.51;50.03
63194;BME280;49289;51.670;5.624;2023-01-28T03:53:05;103111.28;;;10.55;49.95
63194;BME280;49289;51.670;5.624;2023-01-28T03:54:52;103109.87;;;10.55;49.65
63194;BME280;49289;51.670;5.624;2023-01-28T03:56:39;103118.29;;;10.53;50.04
63194;BME280;49289;51.670;5.624;2023-01-28T03:58:26;103118.77;;;10.43;49.94
63194;BME280;49289;51.670;5.624;2023-01-28T04:00:14;103122.39;;;10.29;49.93
63194;BME280;49289;51.670;5.624;2023-01-28T04:02:02;103119.25;;;10.18;50.61
63194;BME280;49289;51.670;5.624;2023-01-28T04:03:51;103128.73;;;10.32;50.23
63194;BME280;49289;51.670;5.624;2023-01-28T04:05:39;103132.45;;;10.40;50.07
63194;BME280;49289;51.670;5.624;2023-01-28T04:07:27;103117.63;;;10.24;49.77
63194;BME280;49289;51.670;5.624;2023-01-28T04:09:16;103140.03;;;10.41;50.20
63194;BME280;49289;51.670;5.624;2023-01-28T04:11:04;103124.20;;;10.38;50.20
63194;BME280;49289;51.670;5.624;2023-01-28T04:12:51;103140.95;;;10.48;50.05
63194;BME280;49289;51.670;5.624;2023-01-28T04:14:38;103141.34;;;10.53;50.00
63194;BME280;49289;51.670;5.624;2023-01-28T04:16:25;103141.66;;;10.51;49.71
63194;BME280;49289;51.670;5.624;2023-01-28T04:18:12;103123.63;;;10.24;50.00
63194;BME280;49289;51.670;5.624;2023-01-28T04:19:59;103121.52;;;10.08;50.11
63194;BME280;49289;51.670;5.624;2023-01-28T04:21:46;103121.14;;;10.08;50.16
63194;BME280;49289;51.670;5.624;2023-01-28T04:23:33;103116.19;;;10.12;50.08
63194;BME280;49289;51.670;5.624;2023-01-28T04:25:21;103138.34;;;10.29;50.00
63194;BME280;49289;51.670;5.624;2023-01-28T04:27:09;103133.72;;;10.25;49.75
63194;BME280;49289;51.670;5.624;2023-01-28T04:28:57;103135.63;;;10.27;49.65
63194;BME280;49289;51.670;5.624;2023-01-28T04:30:45;103134.83;;;10.34;49.61
63194;BME280;49289;51.670;5.624;2023-01-28T04:32:33;103136.15;;;10.37;49.25
63194;BME280;49289;51.670;5.624;2023-01-28T04:34:20;103130.89;;;10.26;49.09
63194;BME280;49289;51.670;5.624;2023-01-28T04:36:07;103112.23;;;10.15;49.05
63194;BME280;49289;51.670;5.624;2023-01-28T04:37:56;103127.33;;;10.38;48.92
63194;BME280;49289;51.670;5.624;2023-01-28T04:39:44;103129.74;;;10.42;49.02
63194;BME280;49289;51.670;5.624;2023-01-28T04:41:32;103112.26;;;10.33;49.12
63194;BME280;49289;51.670;5.624;2023-01-28T04:43:20;103131.58;;;10.31;49.30
63194;BME280;49289;51.670;5.624;2023-01-28T04:45:08;103130.45;;;10.41;49.03
63194;BME280;49289;51.670;5.624;2023-01-28T04:46:55;103110.83;;;10.31;48.74
63194;BME280;49289;51.670;5.624;2023-01-28T04:48:43;103133.64;;;10.39;48.73
63194;BME280;49289;51.670;5.624;2023-01-28T04:50:32;103092.90;;;10.18;48.54
63194;BME280;49289;51.670;5.624;2023-01-28T04:52:20;103125.41;;;10.36;48.55
63194;BME280;49289;51.670;5.624;2023-01-28T04:54:08;103124.75;;;10.29;48.56
63194;BME280;49289;51.670;5.624;2023-01-28T04:55:56;103139.52;;;10.29;48.55
63194;BME280;49289;51.670;5.624;2023-01-28T04:57:45;103145.09;;;10.40;48.28
63194;BME280;49289;51.670;5.624;2023-01-28T04:59:32;103143.31;;;10.42;48.01
63194;BME280;49289;51.670;5.624;2023-01-28T05:01:19;103127.53;;;10.23;47.60
63194;BME280;49289;51.670;5.624;2023-01-28T05:03:06;103124.41;;;10.16;47.59
63194;BME280;49289;51.670;5.624;2023-01-28T05:04:53;103138.31;;;10.27;47.39
63194;BME280;49289;51.670;5.624;2023-01-28T05:06:40;103126.16;;;10.26;47.71
63194;BME280;49289;51.670;5.624;2023-01-28T05:08:29;103121.73;;;10.19;47.20
63194;BME280;49289;51.670;5.624;2023-01-28T05:10:17;103142.13;;;10.37;47.19
63194;BME280;49289;51.670;5.624;2023-01-28T05:12:04;103146.89;;;10.33;48.22
63194;BME280;49289;51.670;5.624;2023-01-28T05:13:51;103149.51;;;10.37;47.73
63194;BME280;49289;51.670;5.624;2023-01-28T05:15:39;103152.89;;;10.47;47.55
63194;BME280;49289;51.670;5.624;2023-01-28T05:17:31;103155.50;;;10.30;47.18
63194;BME280;49289;51.670;5.624;2023-01-28T05:19:19;103153.27;;;10.33;47.09
63194;BME280;49289;51.670;5.624;2023-01-28T05:21:07;103152.67;;;10.35;46.92
63194;BME280;49289;51.670;5.624;2023-01-28T05:22:55;103139.30;;;10.25;47.23
63194;BME280;49289;51.670;5.624;2023-01-28T05:25:50;103149.16;;;10.30;47.26
63194;BME280;49289;51.670;5.624;2023-01-28T05:27:37;103149.41;;;10.41;47.12
63194;BME280;49289;51.670;5.624;2023-01-28T05:29:25;103145.73;;;10.37;46.76
63194;BME280;49289;51.670;5.624;2023-01-28T05:31:14;103142.81;;;10.30;46.06
63194;BME280;49289;51.670;5.624;2023-01-28T05:33:01;103125.88;;;10.27;46.47
63194;BME280;49289;51.670;5.624;2023-01-28T05:34:48;103124.86;;;10.32;47.06
63194;BME280;49289;51.670;5.624;2023-01-28T05:36:37;103118.97;;;10.39;46.92
63194;BME280;49289;51.670;5.624;2023-01-28T05:38:25;103114.39;;;10.12;47.20
63194;BME280;49289;51.670;5.624;2023-01-28T05:40:16;103136.14;;;10.34;46.80
63194;BME280;49289;51.670;5.624;2023-01-28T05:42:03;103121.84;;;10.27;47.20
63194;BME280;49289;51.670;5.624;2023-01-28T05:43:51;103136.02;;;10.38;47.22
63194;BME280;49289;51.670;5.624;2023-01-28T05:45:39;103115.56;;;10.27;47.36
63194;BME280;49289;51.670;5.624;2023-01-28T05:47:27;103134.67;;;10.37;47.37
63194;BME280;49289;51.670;5.624;2023-01-28T05:49:16;103118.80;;;10.26;47.42
63194;BME280;49289;51.670;5.624;2023-01-28T05:51:04;103138.29;;;10.35;47.25
63194;BME280;49289;51.670;5.624;2023-01-28T05:52:52;103121.84;;;10.25;47.24
63194;BME280;49289;51.670;5.624;2023-01-28T05:54:40;103141.25;;;10.33;47.41
63194;BME280;49289;51.670;5.624;2023-01-28T05:56:29;103144.67;;;10.36;47.48
63194;BME280;49289;51.670;5.624;2023-01-28T05:58:16;103124.31;;;10.23;47.25
63194;BME280;49289;51.670;5.624;2023-01-28T06:00:03;103148.64;;;10.31;46.72
63194;BME280;49289;51.670;5.624;2023-01-28T06:01:50;103130.19;;;10.21;46.88
63194;BME280;49289;51.670;5.624;2023-01-28T06:03:37;103132.48;;;10.16;46.99
63194;BME280;49289;51.670;5.624;2023-01-28T06:05:24;103149.49;;;10.16;46.99
63194;BME280;49289;51.670;5.624;2023-01-28T06:07:12;103135.10;;;9.93;47.25
63194;BME280;49289;51.670;5.624;2023-01-28T06:09:02;103154.00;;;10.17;46.91
63194;BME280;49289;51.670;5.624;2023-01-28T06:10:50;103132.59;;;10.16;46.53
63194;BME280;49289;51.670;5.624;2023-01-28T06:12:37;103142.10;;;10.18;47.10
63194;BME280;49289;51.670;5.624;2023-01-28T06:14:24;103141.16;;;9.54;47.03
63194;BME280;49289;51.670;5.624;2023-01-28T06:16:12;103137.77;;;9.93;46.18
63194;BME280;49289;51.670;5.624;2023-01-28T06:18:01;103154.56;;;10.13;46.55
63194;BME280;49289;51.670;5.624;2023-01-28T06:19:49;103139.66;;;10.03;46.09
63194;BME280;49289;51.670;5.624;2023-01-28T06:21:37;103138.17;;;10.00;46.09
63194;BME280;49289;51.670;5.624;2023-01-28T06:23:25;103156.14;;;9.78;46.03
63194;BME280;49289;51.670;5.624;2023-01-28T06:25:13;103155.48;;;9.91;46.27
63194;BME280;49289;51.670;5.624;2023-01-28T06:27:00;103153.77;;;9.84;46.66
63194;BME280;49289;51.670;5.624;2023-01-28T06:28:47;103136.46;;;9.72;45.92
63194;BME280;49289;51.670;5.624;2023-01-28T06:30:34;103157.41;;;9.80;45.87
63194;BME280;49289;51.670;5.624;2023-01-28T06:32:21;103142.13;;;9.73;46.07
63194;BME280;49289;51.670;5.624;2023-01-28T06:34:08;103160.41;;;9.97;46.11
63194;BME280;49289;51.670;5.624;2023-01-28T06:35:55;103141.81;;;9.78;46.73
63194;BME280;49289;51.670;5.624;2023-01-28T06:37:42;103154.59;;;9.99;45.98
63194;BME280;49289;51.670;5.624;2023-01-28T06:39:29;103132.16;;;9.78;45.88
63194;BME280;49289;51.670;5.624;2023-01-28T06:41:18;103164.23;;;9.58;45.51
63194;BME280;49289;51.670;5.624;2023-01-28T06:43:07;103171.55;;;9.76;46.48
63194;BME280;49289;51.670;5.624;2023-01-28T06:44:55;103164.20;;;9.82;46.25
63194;BME280;49289;51.670;5.624;2023-01-28T06:46:43;103144.70;;;9.64;46.25
63194;BME280;49289;51.670;5.624;2023-01-28T06:48:30;103140.56;;;9.54;46.21
63194;BME280;49289;51.670;5.624;2023-01-28T06:50:17;103163.05;;;9.53;45.52
63194;BME280;49289;51.670;5.624;2023-01-28T06:52:05;103160.38;;;9.22;46.31
63194;BME280;49289;51.670;5.624;2023-01-28T06:53:53;103146.19;;;9.41;45.79
63194;BME280;49289;51.670;5.624;2023-01-28T06:55:41;103164.34;;;9.68;45.33
63194;BME280;49289;51.670;5.624;2023-01-28T06:57:29;103153.64;;;9.65;45.06
63194;BME280;49289;51.670;5.624;2023-01-28T06:59:18;103141.20;;;9.67;45.16
63194;BME280;49289;51.670;5.624;2023-01-28T07:01:06;103157.00;;;9.74;45.77
63194;BME280;49289;51.670;5.624;2023-01-28T07:02:54;103165.56;;;9.83;45.63
63194;BME280;49289;51.670;5.624;2023-01-28T07:04:42;103143.52;;;9.38;45.63
63194;BME280;49289;51.670;5.624;2023-01-28T07:06:30;103157.13;;;9.01;46.24
63194;BME280;49289;51.670;5.624;2023-01-28T07:08:18;103158.70;;;9.06;46.64
63194;BME280;49289;51.670;5.624;2023-01-28T07:10:07;103175.04;;;9.57;45.84
63194;BME280;49289;51.670;5.624;2023-01-28T07:11:54;103156.85;;;9.38;45.97
63194;BME280;49289;51.670;5.624;2023-01-28T07:13:42;103175.53;;;9.38;45.89
63194;BME280;49289;51.670;5.624;2023-01-28T07:15:30;103167.00;;;9.57;45.65
63194;BME280;49289;51.670;5.624;2023-01-28T07:17:18;103183.45;;;9.79;45.42
63194;BME280;49289;51.670;5.624;2023-01-28T07:19:06;103189.49;;;9.78;45.63
63194;BME280;49289;51.670;5.624;2023-01-28T07:20:53;103156.80;;;9.36;46.07
63194;BME280;49289;51.670;5.624;2023-01-28T07:22:40;103178.55;;;9.41;45.95
63194;BME280;49289;51.670;5.624;2023-01-28T07:24:27;103180.77;;;9.53;46.11
63194;BME280;49289;51.670;5.624;2023-01-28T07:26:16;103176.25;;;9.54;45.48
63194;BME280;49289;51.670;5.624;2023-01-28T07:28:04;103202.71;;;9.72;46.29
63194;BME280;49289;51.670;5.624;2023-01-28T07:29:52;103204.08;;;9.83;46.34
63194;BME280;49289;51.670;5.624;2023-01-28T07:31:40;103201.94;;;9.76;46.07
63194;BME280;49289;51.670;5.624;2023-01-28T07:33:29;103203.28;;;9.67;45.31
63194;BME280;49289;51.670;5.624;2023-01-28T07:35:17;103208.59;;;9.65;44.87
63194;BME280;49289;51.670;5.624;2023-01-28T07:37:06;103194.69;;;9.65;45.46
63194;BME280;49289;51.670;5.624;2023-01-28T07:38:53;103218.62;;;9.88;45.44
63194;BME280;49289;51.670;5.624;2023-01-28T07:40:40;103216.22;;;9.87;45.07
63194;BME280;49289;51.670;5.624;2023-01-28T07:42:27;103215.86;;;9.59;44.99
63194;BME280;49289;51.670;5.624;2023-01-28T07:44:14;103199.32;;;9.37;46.10
63194;BME280;49289;51.670;5.624;2023-01-28T07:46:04;103221.98;;;9.64;45.75
63194;BME280;49289;51.670;5.624;2023-01-28T07:47:58;103201.12;;;9.72;45.47
63194;BME280;49289;51.670;5.624;2023-01-28T07:49:44;103219.42;;;9.75;45.40
63194;BME280;49289;51.670;5.624;2023-01-28T07:51:32;103199.72;;;9.45;45.55
63194;BME280;49289;51.670;5.624;2023-01-28T07:53:20;103223.19;;;9.31;45.83
63194;BME280;49289;51.670;5.624;2023-01-28T07:55:09;103202.56;;;9.42;46.13
63194;BME280;49289;51.670;5.624;2023-01-28T07:56:56;103203.66;;;9.57;45.84
63194;BME280;49289;51.670;5.624;2023-01-28T07:58:43;103223.70;;;9.76;45.73
63194;BME280;49289;51.670;5.624;2023-01-28T08:00:32;103229.59;;;9.81;45.55
63194;BME280;49289;51.670;5.624;2023-01-28T08:02:21;103205.30;;;9.73;45.26
63194;BME280;49289;51.670;5.624;2023-01-28T08:04:10;103214.83;;;9.84;45.70
63194;BME280;49289;51.670;5.624;2023-01-28T08:05:58;103216.41;;;9.91;45.78
63194;BME280;49289;51.670;5.624;2023-01-28T08:07:45;103216.16;;;9.92;45.86
63194;BME280;49289;51.670;5.624;2023-01-28T08:09:32;103204.52;;;9.80;45.87
63194;BME280;49289;51.670;5.624;2023-01-28T08:11:19;103228.88;;;9.97;45.59
63194;BME280;49289;51.670;5.624;2023-01-28T08:13:08;103213.66;;;9.97;45.49
63194;BME280;49289;51.670;5.624;2023-01-28T08:14:56;103234.84;;;10.14;45.50
63194;BME280;49289;51.670;5.624;2023-01-28T08:16:44;103222.20;;;10.01;45.54
63194;BME280;49289;51.670;5.624;2023-01-28T08:18:32;103243.12;;;10.05;45.68
63194;BME280;49289;51.670;5.624;2023-01-28T08:20:21;103227.17;;;9.93;45.47
63194;BME280;49289;51.670;5.624;2023-01-28T08:22:09;103216.69;;;9.96;45.33
63194;BME280;49289;51.670;5.624;2023-01-28T08:23:57;103246.60;;;10.12;45.49
63194;BME280;49289;51.670;5.624;2023-01-28T08:25:46;103257.28;;;10.13;45.05
63194;BME280;49289;51.670;5.624;2023-01-28T08:27:34;103238.69;;;10.03;45.03
63194;BME280;49289;51.670;5.624;2023-01-28T08:29:22;103257.76;;;10.18;45.16
63194;BME280;49289;51.670;5.624;2023-01-28T08:31:11;103243.06;;;9.96;44.62
63194;BME280;49289;51.670;5.624;2023-01-28T08:33:00;103263.67;;;10.16;45.03
63194;BME280;49289;51.670;5.624;2023-01-28T08:34:48;103263.55;;;10.29;44.62
63194;BME280;49289;51.670;5.624;2023-01-28T08:36:36;103239.17;;;10.26;44.66
63194;BME280;49289;51.670;5.624;2023-01-28T08:38:24;103244.98;;;9.73;44.84
63194;BME280;49289;51.670;5.624;2023-01-28T08:40:14;103256.65;;;9.66;45.20
63194;BME280;49289;51.670;5.624;2023-01-28T08:42:03;103259.41;;;9.71;44.95
63194;BME280;49289;51.670;5.624;2023-01-28T08:43:52;103265.97;;;10.10;44.53
63194;BME280;49289;51.670;5.624;2023-01-28T08:45:39;103266.30;;;10.16;44.49
63194;BME280;49289;51.670;5.624;2023-01-28T08:47:26;103264.92;;;9.92;44.20
63194;BME280;49289;51.670;5.624;2023-01-28T08:49:13;103251.05;;;9.20;45.79
63194;BME280;49289;51.670;5.624;2023-01-28T08:51:02;103253.39;;;9.78;44.62
63194;BME280;49289;51.670;5.624;2023-01-28T08:52:53;103254.64;;;10.08;44.65
63194;BME280;49289;51.670;5.624;2023-01-28T08:54:39;103250.05;;;10.06;44.55
63194;BME280;49289;51.670;5.624;2023-01-28T08:56:26;103270.83;;;10.04;44.43
63194;BME280;49289;51.670;5.624;2023-01-28T08:58:16;103254.79;;;10.13;44.60
63194;BME280;49289;51.670;5.624;2023-01-28T09:00:03;103267.01;;;10.34;44.71
63194;BME280;49289;51.670;5.624;2023-01-28T09:01:51;103265.23;;;10.48;44.91
63194;BME280;49289;51.670;5.624;2023-01-28T09:03:39;103249.86;;;10.09;44.86
63194;BME280;49289;51.670;5.624;2023-01-28T09:05:27;103258.23;;;9.95;44.55
63194;BME280;49289;51.670;5.624;2023-01-28T09:07:14;103283.14;;;10.27;44.87
63194;BME280;49289;51.670;5.624;2023-01-28T09:09:01;103283.27;;;10.40;44.74
63194;BME280;49289;51.670;5.624;2023-01-28T09:10:53;103267.13;;;10.17;44.93
63194;BME280;49289;51.670;5.624;2023-01-28T09:12:37;103286.77;;;10.38;44.97
63194;BME280;49289;51.670;5.624;2023-01-28T09:14:24;103272.92;;;10.24;44.86
63194;BME280;49289;51.670;5.624;2023-01-28T09:16:16;103279.70;;;10.05;44.47
63194;BME280;49289;51.670;5.624;2023-01-28T09:18:09;103283.16;;;10.05;44.54
63194;BME280;49289;51.670;5.624;2023-01-28T09:19:58;103287.99;;;10.14;45.00
63194;BME280;49289;51.670;5.624;2023-01-28T09:21:46;103283.09;;;9.98;44.87
63194;BME280;49289;51.670;5.624;2023-01-28T09:23:35;103295.06;;;10.03;44.75
63194;BME280;49289;51.670;5.624;2023-01-28T09:25:22;103282.48;;;9.89;45.18
63194;BME280;49289;51.670;5.624;2023-01-28T09:27:11;103285.97;;;9.71;45.18
63194;BME280;49289;51.670;5.624;2023-01-28T09:28:59;103284.22;;;10.01;45.10
63194;BME280;49289;51.670;5.624;2023-01-28T09:30:46;103280.86;;;10.15;45.35